sensor_id;sensor_type;location;lat;lon;timestamp;P1;durP1;ratioP1;P2;durP2;ratioP2
33794;SDS011;51430;52.242;21.118;2022-09-06T00:01:13;3.70;;;2.10;;
33794;SDS011;51430;52.242;21.118;2022-09-06T00:03:44;3.30;;;2.00;;
33794;SDS011;51430;52.242;21.118;2022-09-06T00:06:14;6.20;;;2.40;;
33794;SDS011;51430;52.242;21.118;2022-09-06T00:08:45;3.40;;;2.10;;
33794;SDS011;51430;52.242;21.118;2022-09-06T00:11:15;3.50;;;2.00;;
33794;SDS011;51430;52.242;21.118;2022-09-06T00:13:45;2.30;;;1.90;;
33794;SDS011;51430;52.242;21.118;2022-09-06T00:16:15;6.90;;;2.40;;
33794;SDS011;51430;52.242;21.118;2022-09-06T00:18:46;6.00;;;2.50;;
33794;SDS011;51430;52.242;21.118;2022-09-06T00:21:17;6.10;;;2.40;;
33794;SDS011;51430;52.242;21.118;2022-09-06T00:23:48;4.50;;;2.50;;
33794;SDS011;51430;52.242;21.118;2022-09-06T00:26:16;3.60;;;2.40;;
33794;SDS011;51430;52.242;21.118;2022-09-06T00:28:45;4.30;;;2.20;;
33794;SDS011;51430;52.242;21.118;2022-09-06T00:31:15;4.40;;;2.70;;
33794;SDS011;51430;52.242;21.118;2022-09-06T00:33:49;3.60;;;2.10;;
33794;SDS011;51430;52.242;21.118;2022-09-06T00:36:18;5.80;;;2.20;;
33794;SDS011;51430;52.242;21.118;2022-09-06T00:38:48;7.80;;;2.10;;
33794;SDS011;51430;52.242;21.118;2022-09-06T00:41:16;5.80;;;2.20;;
33794;SDS011;51430;52.242;21.118;2022-09-06T00:43:45;4.70;;;2.00;;
33794;SDS011;51430;52.242;21.118;2022-09-06T00:46:20;5.00;;;2.10;;
33794;SDS011;51430;52.242;21.118;2022-09-06T00:48:55;4.30;;;2.20;;
33794;SDS011;51430;52.242;21.118;2022-09-06T00:51:33;3.70;;;2.20;;
33794;SDS011;51430;52.242;21.118;2022-09-06T00:54:03;3.80;;;1.90;;
33794;SDS011;51430;52.242;21.118;2022-09-06T00:56:34;3.50;;;2.00;;
33794;SDS011;51430;52.242;21.118;2022-09-06T00:59:07;2.50;;;2.20;;
33794;SDS011;51430;52.242;21.118;2022-09-06T01:01:36;4.20;;;1.90;;
33794;SDS011;51430;52.242;21.118;2022-09-06T01:04:04;5.90;;;2.00;;
33794;SDS011;51430;52.242;21.118;2022-09-06T01:14:55;5.30;;;2.40;;
33794;SDS011;51430;52.242;21.118;2022-09-06T01:18:00;2.70;;;2.30;;
33794;SDS011;51430;52.242;21.118;2022-09-06T01:28:50;3.70;;;2.10;;
33794;SDS011;51430;52.242;21.118;2022-09-06T01:31:43;4.20;;;2.00;;
33794;SDS011;51430;52.242;21.118;2022-09-06T01:34:28;2.60;;;2.20;;
33794;SDS011;51430;52.242;21.118;2022-09-06T01:37:05;4.40;;;2.30;;
33794;SDS011;51430;52.242;21.118;2022-09-06T01:39:39;2.70;;;2.00;;
33794;SDS011;51430;52.242;21.118;2022-09-06T01:44:44;3.00;;;2.10;;
33794;SDS011;51430;52.242;21.118;2022-09-06T01:47:22;4.40;;;2.10;;
33794;SDS011;51430;52.242;21.118;2022-09-06T01:55:31;3.50;;;2.10;;
33794;SDS011;51430;52.242;21.118;2022-09-06T01:58:23;2.60;;;2.30;;
33794;SDS011;51430;52.242;21.118;2022-09-06T02:04:18;4.30;;;2.20;;
33794;SDS011;51430;52.242;21.118;2022-09-06T02:07:00;3.10;;;2.10;;
33794;SDS011;51430;52.242;21.118;2022-09-06T02:09:32;4.30;;;2.10;;
33794;SDS011;51430;52.242;21.118;2022-09-06T02:12:08;4.00;;;2.50;;
33794;SDS011;51430;52.242;21.118;2022-09-06T02:14:44;4.10;;;2.60;;
33794;SDS011;51430;52.242;21.118;2022-09-06T02:17:20;4.50;;;2.80;;
33794;SDS011;51430;52.242;21.118;2022-09-06T02:20:02;4.50;;;2.50;;
33794;SDS011;51430;52.242;21.118;2022-09-06T02:22:38;3.00;;;2.70;;
33794;SDS011;51430;52.242;21.118;2022-09-06T02:25:20;4.20;;;2.60;;
33794;SDS011;51430;52.242;21.118;2022-09-06T02:27:58;2.80;;;2.50;;
33794;SDS011;51430;52.242;21.118;2022-09-06T02:30:27;3.60;;;2.60;;
33794;SDS011;51430;52.242;21.118;2022-09-06T02:32:56;4.40;;;2.60;;
33794;SDS011;51430;52.242;21.118;2022-09-06T02:35:28;3.30;;;2.80;;
33794;SDS011;51430;52.242;21.118;2022-09-06T02:37:57;2.50;;;2.20;;
33794;SDS011;51430;52.242;21.118;2022-09-06T02:40:26;3.30;;;2.40;;
33794;SDS011;51430;52.242;21.118;2022-09-06T02:42:54;2.90;;;2.20;;
33794;SDS011;51430;52.242;21.118;2022-09-06T02:45:22;3.20;;;2.40;;
33794;SDS011;51430;52.242;21.118;2022-09-06T02:47:50;3.70;;;2.30;;
33794;SDS011;51430;52.242;21.118;2022-09-06T02:50:18;3.20;;;2.20;;
33794;SDS011;51430;52.242;21.118;2022-09-06T02:52:59;3.90;;;2.30;;
33794;SDS011;51430;52.242;21.118;2022-09-06T02:55:37;2.90;;;2.30;;
33794;SDS011;51430;52.242;21.118;2022-09-06T02:58:07;4.00;;;2.30;;
33794;SDS011;51430;52.242;21.118;2022-09-06T03:00:37;4.00;;;2.60;;
33794;SDS011;51430;52.242;21.118;2022-09-06T03:03:06;4.80;;;2.20;;
33794;SDS011;51430;52.242;21.118;2022-09-06T03:05:34;5.00;;;2.60;;
33794;SDS011;51430;52.242;21.118;2022-09-06T03:08:03;2.90;;;2.10;;
33794;SDS011;51430;52.242;21.118;2022-09-06T03:10:31;4.70;;;2.50;;
33794;SDS011;51430;52.242;21.118;2022-09-06T03:13:00;5.30;;;2.20;;
33794;SDS011;51430;52.242;21.118;2022-09-06T03:15:28;4.30;;;2.60;;
33794;SDS011;51430;52.242;21.118;2022-09-06T03:17:57;3.00;;;2.50;;
33794;SDS011;51430;52.242;21.118;2022-09-06T03:20:26;3.10;;;2.40;;
33794;SDS011;51430;52.242;21.118;2022-09-06T03:22:55;2.90;;;2.30;;
33794;SDS011;51430;52.242;21.118;2022-09-06T03:25:23;6.30;;;2.60;;
33794;SDS011;51430;52.242;21.118;2022-09-06T03:27:55;3.30;;;2.30;;
33794;SDS011;51430;52.242;21.118;2022-09-06T03:30:23;3.60;;;2.40;;
33794;SDS011;51430;52.242;21.118;2022-09-06T03:32:51;2.80;;;2.30;;
33794;SDS011;51430;52.242;21.118;2022-09-06T03:35:21;3.20;;;2.50;;
33794;SDS011;51430;52.242;21.118;2022-09-06T03:37:49;3.20;;;2.30;;
33794;SDS011;51430;52.242;21.118;2022-09-06T03:40:17;3.10;;;2.30;;
33794;SDS011;51430;52.242;21.118;2022-09-06T03:42:46;4.60;;;2.50;;
33794;SDS011;51430;52.242;21.118;2022-09-06T03:45:14;3.00;;;2.50;;
33794;SDS011;51430;52.242;21.118;2022-09-06T03:47:42;3.30;;;2.30;;
33794;SDS011;51430;52.242;21.118;2022-09-06T03:50:10;3.20;;;2.20;;
33794;SDS011;51430;52.242;21.118;2022-09-06T03:52:39;6.20;;;2.00;;
33794;SDS011;51430;52.242;21.118;2022-09-06T03:55:07;2.80;;;2.00;;
33794;SDS011;51430;52.242;21.118;2022-09-06T03:57:36;3.40;;;2.20;;
33794;SDS011;51430;52.242;21.118;2022-09-06T04:00:04;3.10;;;2.10;;
33794;SDS011;51430;52.242;21.118;2022-09-06T04:02:33;4.40;;;2.10;;
33794;SDS011;51430;52.242;21.118;2022-09-06T04:05:01;4.50;;;2.60;;
33794;SDS011;51430;52.242;21.118;2022-09-06T04:07:30;4.80;;;2.30;;
33794;SDS011;51430;52.242;21.118;2022-09-06T04:09:58;7.00;;;2.40;;
33794;SDS011;51430;52.242;21.118;2022-09-06T04:12:26;4.40;;;2.30;;
33794;SDS011;51430;52.242;21.118;2022-09-06T04:14:55;8.70;;;5.90;;
33794;SDS011;51430;52.242;21.118;2022-09-06T04:17:23;13.00;;;11.60;;
33794;SDS011;51430;52.242;21.118;2022-09-06T04:19:52;14.50;;;13.20;;
33794;SDS011;51430;52.242;21.118;2022-09-06T04:22:20;11.70;;;10.10;;
33794;SDS011;51430;52.242;21.118;2022-09-06T04:24:48;9.40;;;7.90;;
33794;SDS011;51430;52.242;21.118;2022-09-06T04:27:16;11.40;;;7.10;;
33794;SDS011;51430;52.242;21.118;2022-09-06T04:29:44;6.30;;;4.40;;
33794;SDS011;51430;52.242;21.118;2022-09-06T04:32:13;7.00;;;4.30;;
33794;SDS011;51430;52.242;21.118;2022-09-06T04:34:41;5.80;;;4.30;;
33794;SDS011;51430;52.242;21.118;2022-09-06T04:37:09;13.90;;;10.70;;
33794;SDS011;51430;52.242;21.118;2022-09-06T04:39:38;12.00;;;8.10;;
33794;SDS011;51430;52.242;21.118;2022-09-06T04:42:06;9.00;;;7.20;;
33794;SDS011;51430;52.242;21.118;2022-09-06T04:44:33;10.30;;;4.30;;
33794;SDS011;51430;52.242;21.118;2022-09-06T04:47:04;7.00;;;4.40;;
33794;SDS011;51430;52.242;21.118;2022-09-06T04:49:36;6.50;;;3.80;;
33794;SDS011;51430;52.242;21.118;2022-09-06T04:52:05;7.60;;;3.80;;
33794;SDS011;51430;52.242;21.118;2022-09-06T04:54:33;6.20;;;3.60;;
33794;SDS011;51430;52.242;21.118;2022-09-06T04:57:02;5.40;;;3.00;;
33794;SDS011;51430;52.242;21.118;2022-09-06T04:59:30;9.10;;;4.00;;
33794;SDS011;51430;52.242;21.118;2022-09-06T05:01:59;9.40;;;3.60;;
33794;SDS011;51430;52.242;21.118;2022-09-06T05:04:27;7.60;;;3.80;;
33794;SDS011;51430;52.242;21.118;2022-09-06T05:07:03;5.90;;;3.20;;
33794;SDS011;51430;52.242;21.118;2022-09-06T05:09:42;5.10;;;3.00;;
33794;SDS011;51430;52.242;21.118;2022-09-06T05:12:10;6.50;;;3.20;;
33794;SDS011;51430;52.242;21.118;2022-09-06T05:14:39;5.30;;;2.50;;
33794;SDS011;51430;52.242;21.118;2022-09-06T05:17:07;5.20;;;2.90;;
33794;SDS011;51430;52.242;21.118;2022-09-06T05:19:36;4.40;;;2.50;;
33794;SDS011;51430;52.242;21.118;2022-09-06T05:22:04;6.10;;;2.40;;
33794;SDS011;51430;52.242;21.118;2022-09-06T05:24:49;5.50;;;2.50;;
33794;SDS011;51430;52.242;21.118;2022-09-06T05:27:18;5.70;;;2.70;;
33794;SDS011;51430;52.242;21.118;2022-09-06T05:29:46;4.70;;;2.20;;
33794;SDS011;51430;52.242;21.118;2022-09-06T05:32:14;5.70;;;2.20;;
33794;SDS011;51430;52.242;21.118;2022-09-06T05:35:00;5.30;;;2.00;;
33794;SDS011;51430;52.242;21.118;2022-09-06T05:37:28;3.10;;;2.20;;
33794;SDS011;51430;52.242;21.118;2022-09-06T05:39:56;6.40;;;2.30;;
33794;SDS011;51430;52.242;21.118;2022-09-06T05:42:26;6.20;;;1.90;;
33794;SDS011;51430;52.242;21.118;2022-09-06T05:44:55;3.80;;;2.00;;
33794;SDS011;51430;52.242;21.118;2022-09-06T05:47:23;6.80;;;2.10;;
33794;SDS011;51430;52.242;21.118;2022-09-06T05:49:52;8.90;;;2.20;;
33794;SDS011;51430;52.242;21.118;2022-09-06T05:52:21;4.70;;;1.70;;
33794;SDS011;51430;52.242;21.118;2022-09-06T05:54:49;4.40;;;1.80;;
33794;SDS011;51430;52.242;21.118;2022-09-06T05:57:17;7.60;;;1.80;;
33794;SDS011;51430;52.242;21.118;2022-09-06T05:59:45;4.40;;;1.70;;
33794;SDS011;51430;52.242;21.118;2022-09-06T06:02:13;5.20;;;1.80;;
33794;SDS011;51430;52.242;21.118;2022-09-06T06:04:42;3.80;;;1.80;;
33794;SDS011;51430;52.242;21.118;2022-09-06T06:07:10;3.10;;;1.50;;
33794;SDS011;51430;52.242;21.118;2022-09-06T06:09:39;2.90;;;1.40;;
33794;SDS011;51430;52.242;21.118;2022-09-06T06:12:08;3.10;;;1.60;;
33794;SDS011;51430;52.242;21.118;2022-09-06T06:14:37;4.10;;;1.60;;
33794;SDS011;51430;52.242;21.118;2022-09-06T06:17:05;8.70;;;2.30;;
33794;SDS011;51430;52.242;21.118;2022-09-06T06:19:34;3.10;;;1.50;;
33794;SDS011;51430;52.242;21.118;2022-09-06T06:22:02;7.50;;;1.60;;
33794;SDS011;51430;52.242;21.118;2022-09-06T06:24:31;2.60;;;1.40;;
33794;SDS011;51430;52.242;21.118;2022-09-06T06:26:59;2.70;;;1.30;;
33794;SDS011;51430;52.242;21.118;2022-09-06T06:29:27;4.80;;;1.80;;
33794;SDS011;51430;52.242;21.118;2022-09-06T06:31:56;3.60;;;1.40;;
33794;SDS011;51430;52.242;21.118;2022-09-06T06:34:24;2.90;;;1.10;;
33794;SDS011;51430;52.242;21.118;2022-09-06T06:36:52;5.50;;;1.50;;
33794;SDS011;51430;52.242;21.118;2022-09-06T06:39:21;4.70;;;1.10;;
33794;SDS011;51430;52.242;21.118;2022-09-06T06:41:49;4.40;;;1.50;;
33794;SDS011;51430;52.242;21.118;2022-09-06T06:44:17;3.70;;;1.10;;
33794;SDS011;51430;52.242;21.118;2022-09-06T06:46:45;1.80;;;1.10;;
33794;SDS011;51430;52.242;21.118;2022-09-06T06:49:14;1.80;;;1.20;;
33794;SDS011;51430;52.242;21.118;2022-09-06T06:51:42;4.00;;;1.30;;
33794;SDS011;51430;52.242;21.118;2022-09-06T06:54:10;1.90;;;1.00;;
33794;SDS011;51430;52.242;21.118;2022-09-06T06:56:39;2.70;;;1.20;;
33794;SDS011;51430;52.242;21.118;2022-09-06T06:59:07;5.20;;;1.40;;
33794;SDS011;51430;52.242;21.118;2022-09-06T07:01:36;8.50;;;1.00;;
33794;SDS011;51430;52.242;21.118;2022-09-06T07:04:04;4.30;;;1.10;;
33794;SDS011;51430;52.242;21.118;2022-09-06T07:06:51;2.40;;;1.10;;
33794;SDS011;51430;52.242;21.118;2022-09-06T07:09:41;4.60;;;1.20;;
33794;SDS011;51430;52.242;21.118;2022-09-06T07:12:30;1.80;;;0.70;;
33794;SDS011;51430;52.242;21.118;2022-09-06T07:14:58;2.60;;;1.00;;
33794;SDS011;51430;52.242;21.118;2022-09-06T07:17:26;1.70;;;0.80;;
33794;SDS011;51430;52.242;21.118;2022-09-06T07:19:54;3.60;;;1.00;;
33794;SDS011;51430;52.242;21.118;2022-09-06T07:22:38;3.00;;;0.80;;
33794;SDS011;51430;52.242;21.118;2022-09-06T07:25:07;1.60;;;0.80;;
33794;SDS011;51430;52.242;21.118;2022-09-06T07:27:40;5.10;;;1.10;;
33794;SDS011;51430;52.242;21.118;2022-09-06T07:30:16;2.10;;;0.80;;
33794;SDS011;51430;52.242;21.118;2022-09-06T07:32:47;3.50;;;1.00;;
33794;SDS011;51430;52.242;21.118;2022-09-06T07:35:15;1.40;;;0.80;;
33794;SDS011;51430;52.242;21.118;2022-09-06T07:37:50;1.20;;;0.60;;
33794;SDS011;51430;52.242;21.118;2022-09-06T07:40:22;1.90;;;0.70;;
33794;SDS011;51430;52.242;21.118;2022-09-06T07:42:52;2.10;;;0.80;;
33794;SDS011;51430;52.242;21.118;2022-09-06T07:45:23;2.10;;;0.60;;
33794;SDS011;51430;52.242;21.118;2022-09-06T07:47:56;6.40;;;0.80;;
33794;SDS011;51430;52.242;21.118;2022-09-06T07:50:28;1.50;;;0.60;;
33794;SDS011;51430;52.242;21.118;2022-09-06T07:53:15;3.50;;;0.80;;
33794;SDS011;51430;52.242;21.118;2022-09-06T07:55:56;2.50;;;1.00;;
33794;SDS011;51430;52.242;21.118;2022-09-06T07:58:25;3.00;;;0.90;;
33794;SDS011;51430;52.242;21.118;2022-09-06T08:03:57;1.50;;;0.50;;
33794;SDS011;51430;52.242;21.118;2022-09-06T08:06:32;4.80;;;0.80;;
33794;SDS011;51430;52.242;21.118;2022-09-06T08:09:23;1.90;;;0.70;;
33794;SDS011;51430;52.242;21.118;2022-09-06T08:11:51;2.10;;;0.70;;
33794;SDS011;51430;52.242;21.118;2022-09-06T08:14:20;3.50;;;0.70;;
33794;SDS011;51430;52.242;21.118;2022-09-06T08:16:48;2.30;;;0.90;;
33794;SDS011;51430;52.242;21.118;2022-09-06T08:19:17;1.70;;;0.60;;
33794;SDS011;51430;52.242;21.118;2022-09-06T08:21:45;3.20;;;0.60;;
33794;SDS011;51430;52.242;21.118;2022-09-06T08:24:13;1.30;;;0.80;;
33794;SDS011;51430;52.242;21.118;2022-09-06T08:26:41;2.00;;;0.60;;
33794;SDS011;51430;52.242;21.118;2022-09-06T08:29:10;1.20;;;0.60;;
33794;SDS011;51430;52.242;21.118;2022-09-06T08:31:41;2.00;;;1.00;;
33794;SDS011;51430;52.242;21.118;2022-09-06T08:34:10;1.10;;;0.60;;
33794;SDS011;51430;52.242;21.118;2022-09-06T08:36:41;2.30;;;0.60;;
33794;SDS011;51430;52.242;21.118;2022-09-06T08:39:11;2.90;;;0.90;;
33794;SDS011;51430;52.242;21.118;2022-09-06T08:44:14;2.20;;;0.70;;
33794;SDS011;51430;52.242;21.118;2022-09-06T08:47:15;1.00;;;0.60;;
33794;SDS011;51430;52.242;21.118;2022-09-06T08:49:50;1.00;;;0.80;;
33794;SDS011;51430;52.242;21.118;2022-09-06T08:55:54;3.50;;;0.80;;
33794;SDS011;51430;52.242;21.118;2022-09-06T09:02:02;4.30;;;0.60;;
33794;SDS011;51430;52.242;21.118;2022-09-06T09:04:35;1.40;;;0.60;;
33794;SDS011;51430;52.242;21.118;2022-09-06T09:07:53;1.20;;;0.40;;
33794;SDS011;51430;52.242;21.118;2022-09-06T09:10:30;1.60;;;0.70;;
33794;SDS011;51430;52.242;21.118;2022-09-06T09:13:19;1.90;;;0.50;;
33794;SDS011;51430;52.242;21.118;2022-09-06T09:15:57;0.40;;;0.40;;
33794;SDS011;51430;52.242;21.118;2022-09-06T09:18:27;2.70;;;0.50;;
33794;SDS011;51430;52.242;21.118;2022-09-06T09:21:00;2.70;;;0.50;;
33794;SDS011;51430;52.242;21.118;2022-09-06T09:23:28;1.80;;;0.50;;
33794;SDS011;51430;52.242;21.118;2022-09-06T09:25:59;1.50;;;0.50;;
33794;SDS011;51430;52.242;21.118;2022-09-06T09:28:31;0.80;;;0.50;;
33794;SDS011;51430;52.242;21.118;2022-09-06T09:31:00;1.60;;;0.40;;
33794;SDS011;51430;52.242;21.118;2022-09-06T09:33:29;1.00;;;0.60;;
33794;SDS011;51430;52.242;21.118;2022-09-06T09:36:04;1.30;;;0.40;;
33794;SDS011;51430;52.242;21.118;2022-09-06T09:38:44;1.80;;;0.80;;
33794;SDS011;51430;52.242;21.118;2022-09-06T09:41:29;1.70;;;0.50;;
33794;SDS011;51430;52.242;21.118;2022-09-06T09:44:01;1.70;;;0.60;;
33794;SDS011;51430;52.242;21.118;2022-09-06T09:46:36;1.80;;;0.70;;
33794;SDS011;51430;52.242;21.118;2022-09-06T09:49:13;0.70;;;0.50;;
33794;SDS011;51430;52.242;21.118;2022-09-06T09:54:37;0.60;;;0.60;;
33794;SDS011;51430;52.242;21.118;2022-09-06T09:57:08;2.40;;;0.70;;
33794;SDS011;51430;52.242;21.118;2022-09-06T09:59:41;0.80;;;0.50;;
33794;SDS011;51430;52.242;21.118;2022-09-06T10:02:16;0.70;;;0.60;;
33794;SDS011;51430;52.242;21.118;2022-09-06T10:04:52;2.00;;;0.60;;
33794;SDS011;51430;52.242;21.118;2022-09-06T10:07:28;1.90;;;0.50;;
33794;SDS011;51430;52.242;21.118;2022-09-06T10:10:05;1.40;;;0.50;;
33794;SDS011;51430;52.242;21.118;2022-09-06T10:12:40;0.40;;;0.40;;
33794;SDS011;51430;52.242;21.118;2022-09-06T10:15:10;0.70;;;0.50;;
33794;SDS011;51430;52.242;21.118;2022-09-06T10:17:58;0.60;;;0.40;;
33794;SDS011;51430;52.242;21.118;2022-09-06T10:20:50;2.20;;;0.50;;
33794;SDS011;51430;52.242;21.118;2022-09-06T10:23:23;1.50;;;0.60;;
33794;SDS011;51430;52.242;21.118;2022-09-06T10:26:41;0.80;;;0.60;;
33794;SDS011;51430;52.242;21.118;2022-09-06T10:29:17;1.60;;;0.50;;
33794;SDS011;51430;52.242;21.118;2022-09-06T10:34:46;1.90;;;0.60;;
33794;SDS011;51430;52.242;21.118;2022-09-06T10:40:25;2.10;;;0.30;;
33794;SDS011;51430;52.242;21.118;2022-09-06T10:43:00;1.20;;;0.40;;
33794;SDS011;51430;52.242;21.118;2022-09-06T10:48:16;2.00;;;0.50;;
33794;SDS011;51430;52.242;21.118;2022-09-06T10:50:49;2.70;;;0.60;;
33794;SDS011;51430;52.242;21.118;2022-09-06T10:56:47;0.40;;;0.30;;
33794;SDS011;51430;52.242;21.118;2022-09-06T11:04:34;0.90;;;0.30;;
33794;SDS011;51430;52.242;21.118;2022-09-06T11:07:45;0.60;;;0.30;;
33794;SDS011;51430;52.242;21.118;2022-09-06T11:10:40;0.60;;;0.50;;
33794;SDS011;51430;52.242;21.118;2022-09-06T11:13:15;2.80;;;0.40;;
33794;SDS011;51430;52.242;21.118;2022-09-06T11:15:58;0.50;;;0.30;;
33794;SDS011;51430;52.242;21.118;2022-09-06T11:18:52;0.70;;;0.40;;
33794;SDS011;51430;52.242;21.118;2022-09-06T11:21:29;3.10;;;0.30;;
33794;SDS011;51430;52.242;21.118;2022-09-06T11:24:31;0.70;;;0.30;;
33794;SDS011;51430;52.242;21.118;2022-09-06T11:29:44;0.50;;;0.20;;
33794;SDS011;51430;52.242;21.118;2022-09-06T11:35:25;0.30;;;0.30;;
33794;SDS011;51430;52.242;21.118;2022-09-06T11:38:06;0.40;;;0.30;;
33794;SDS011;51430;52.242;21.118;2022-09-06T11:41:02;2.20;;;0.50;;
33794;SDS011;51430;52.242;21.118;2022-09-06T11:43:47;2.90;;;0.60;;
33794;SDS011;51430;52.242;21.118;2022-09-06T11:51:44;2.10;;;0.30;;
33794;SDS011;51430;52.242;21.118;2022-09-06T12:02:05;0.40;;;0.30;;
33794;SDS011;51430;52.242;21.118;2022-09-06T12:07:28;1.60;;;0.40;;
33794;SDS011;51430;52.242;21.118;2022-09-06T12:12:57;0.80;;;0.20;;
33794;SDS011;51430;52.242;21.118;2022-09-06T12:15:27;1.90;;;0.60;;
33794;SDS011;51430;52.242;21.118;2022-09-06T12:18:50;0.50;;;0.40;;
33794;SDS011;51430;52.242;21.118;2022-09-06T12:21:09;0.50;;;0.30;;
33794;SDS011;51430;52.242;21.118;2022-09-06T12:23:57;0.30;;;0.30;;
33794;SDS011;51430;52.242;21.118;2022-09-06T12:29:53;3.40;;;0.40;;
33794;SDS011;51430;52.242;21.118;2022-09-06T12:32:27;1.50;;;0.50;;
33794;SDS011;51430;52.242;21.118;2022-09-06T12:35:20;1.10;;;0.50;;
33794;SDS011;51430;52.242;21.118;2022-09-06T12:38:11;2.10;;;0.60;;
33794;SDS011;51430;52.242;21.118;2022-09-06T12:40:43;1.70;;;0.40;;
33794;SDS011;51430;52.242;21.118;2022-09-06T12:43:15;6.80;;;0.60;;
33794;SDS011;51430;52.242;21.118;2022-09-06T12:45:52;1.20;;;0.30;;
33794;SDS011;51430;52.242;21.118;2022-09-06T12:48:27;3.30;;;0.60;;
33794;SDS011;51430;52.242;21.118;2022-09-06T12:51:08;1.30;;;0.50;;
33794;SDS011;51430;52.242;21.118;2022-09-06T12:53:50;1.70;;;0.40;;
33794;SDS011;51430;52.242;21.118;2022-09-06T12:56:21;0.70;;;0.50;;
33794;SDS011;51430;52.242;21.118;2022-09-06T12:58:51;1.50;;;0.40;;
33794;SDS011;51430;52.242;21.118;2022-09-06T13:01:20;1.30;;;0.30;;
33794;SDS011;51430;52.242;21.118;2022-09-06T13:04:01;1.10;;;0.50;;
33794;SDS011;51430;52.242;21.118;2022-09-06T13:06:39;0.60;;;0.30;;
33794;SDS011;51430;52.242;21.118;2022-09-06T13:09:13;1.80;;;0.60;;
33794;SDS011;51430;52.242;21.118;2022-09-06T13:11:47;2.50;;;0.50;;
33794;SDS011;51430;52.242;21.118;2022-09-06T13:14:24;2.50;;;0.40;;
33794;SDS011;51430;52.242;21.118;2022-09-06T13:16:56;1.30;;;0.40;;
33794;SDS011;51430;52.242;21.118;2022-09-06T13:22:07;1.10;;;0.30;;
33794;SDS011;51430;52.242;21.118;2022-09-06T13:24:40;2.10;;;0.40;;
33794;SDS011;51430;52.242;21.118;2022-09-06T13:30:01;0.80;;;0.30;;
33794;SDS011;51430;52.242;21.118;2022-09-06T13:32:30;1.20;;;0.50;;
33794;SDS011;51430;52.242;21.118;2022-09-06T13:34:58;1.00;;;0.40;;
33794;SDS011;51430;52.242;21.118;2022-09-06T13:37:28;1.10;;;0.30;;
33794;SDS011;51430;52.242;21.118;2022-09-06T13:40:00;1.60;;;0.40;;
33794;SDS011;51430;52.242;21.118;2022-09-06T13:42:33;0.80;;;0.40;;
33794;SDS011;51430;52.242;21.118;2022-09-06T13:47:50;2.60;;;0.60;;
33794;SDS011;51430;52.242;21.118;2022-09-06T13:50:38;2.00;;;0.50;;
33794;SDS011;51430;52.242;21.118;2022-09-06T13:53:08;1.60;;;0.40;;
33794;SDS011;51430;52.242;21.118;2022-09-06T13:55:37;0.10;;;0.10;;
33794;SDS011;51430;52.242;21.118;2022-09-06T13:58:07;2.50;;;0.40;;
33794;SDS011;51430;52.242;21.118;2022-09-06T14:00:35;9.90;;;0.80;;
33794;SDS011;51430;52.242;21.118;2022-09-06T14:03:09;0.40;;;0.40;;
33794;SDS011;51430;52.242;21.118;2022-09-06T14:05:46;4.00;;;0.30;;
33794;SDS011;51430;52.242;21.118;2022-09-06T14:08:14;2.80;;;0.40;;
33794;SDS011;51430;52.242;21.118;2022-09-06T14:10:43;1.20;;;0.50;;
33794;SDS011;51430;52.242;21.118;2022-09-06T14:13:15;0.90;;;0.60;;
33794;SDS011;51430;52.242;21.118;2022-09-06T14:15:45;1.10;;;0.30;;
33794;SDS011;51430;52.242;21.118;2022-09-06T14:18:15;2.00;;;0.60;;
33794;SDS011;51430;52.242;21.118;2022-09-06T14:20:49;0.70;;;0.30;;
33794;SDS011;51430;52.242;21.118;2022-09-06T14:23:19;0.70;;;0.30;;
33794;SDS011;51430;52.242;21.118;2022-09-06T14:25:48;2.00;;;0.70;;
33794;SDS011;51430;52.242;21.118;2022-09-06T14:28:17;2.20;;;0.50;;
33794;SDS011;51430;52.242;21.118;2022-09-06T14:30:45;2.60;;;0.40;;
33794;SDS011;51430;52.242;21.118;2022-09-06T14:33:13;2.40;;;0.60;;
33794;SDS011;51430;52.242;21.118;2022-09-06T14:35:41;4.30;;;0.50;;
33794;SDS011;51430;52.242;21.118;2022-09-06T14:38:10;1.50;;;0.30;;
33794;SDS011;51430;52.242;21.118;2022-09-06T14:40:38;1.90;;;0.50;;
33794;SDS011;51430;52.242;21.118;2022-09-06T14:43:10;2.20;;;0.50;;
33794;SDS011;51430;52.242;21.118;2022-09-06T14:45:39;0.90;;;0.30;;
33794;SDS011;51430;52.242;21.118;2022-09-06T14:48:07;0.60;;;0.50;;
33794;SDS011;51430;52.242;21.118;2022-09-06T14:50:36;2.00;;;0.50;;
33794;SDS011;51430;52.242;21.118;2022-09-06T14:53:04;1.30;;;0.60;;
33794;SDS011;51430;52.242;21.118;2022-09-06T14:55:59;0.50;;;0.40;;
33794;SDS011;51430;52.242;21.118;2022-09-06T14:58:29;1.10;;;0.40;;
33794;SDS011;51430;52.242;21.118;2022-09-06T15:01:32;3.50;;;0.40;;
33794;SDS011;51430;52.242;21.118;2022-09-06T15:04:06;1.90;;;0.40;;
33794;SDS011;51430;52.242;21.118;2022-09-06T15:06:36;0.60;;;0.50;;
33794;SDS011;51430;52.242;21.118;2022-09-06T15:09:07;0.70;;;0.50;;
33794;SDS011;51430;52.242;21.118;2022-09-06T15:11:42;1.20;;;0.30;;
33794;SDS011;51430;52.242;21.118;2022-09-06T15:16:51;0.40;;;0.30;;
33794;SDS011;51430;52.242;21.118;2022-09-06T15:19:24;3.50;;;0.50;;
33794;SDS011;51430;52.242;21.118;2022-09-06T15:21:54;0.90;;;0.40;;
33794;SDS011;51430;52.242;21.118;2022-09-06T15:24:24;1.30;;;0.50;;
33794;SDS011;51430;52.242;21.118;2022-09-06T15:26:52;2.60;;;0.60;;
33794;SDS011;51430;52.242;21.118;2022-09-06T15:29:21;3.80;;;0.60;;
33794;SDS011;51430;52.242;21.118;2022-09-06T15:31:50;0.70;;;0.50;;
33794;SDS011;51430;52.242;21.118;2022-09-06T15:34:19;3.20;;;0.50;;
33794;SDS011;51430;52.242;21.118;2022-09-06T15:36:48;1.90;;;0.60;;
33794;SDS011;51430;52.242;21.118;2022-09-06T15:39:18;1.90;;;0.40;;
33794;SDS011;51430;52.242;21.118;2022-09-06T15:41:48;1.70;;;0.60;;
33794;SDS011;51430;52.242;21.118;2022-09-06T15:44:17;1.10;;;0.50;;
33794;SDS011;51430;52.242;21.118;2022-09-06T15:46:54;1.70;;;0.60;;
33794;SDS011;51430;52.242;21.118;2022-09-06T15:49:29;3.20;;;0.40;;
33794;SDS011;51430;52.242;21.118;2022-09-06T15:52:00;2.80;;;0.50;;
33794;SDS011;51430;52.242;21.118;2022-09-06T15:54:29;0.70;;;0.50;;
33794;SDS011;51430;52.242;21.118;2022-09-06T15:57:16;0.70;;;0.70;;
33794;SDS011;51430;52.242;21.118;2022-09-06T15:59:44;1.60;;;0.60;;
33794;SDS011;51430;52.242;21.118;2022-09-06T16:02:13;1.60;;;0.40;;
33794;SDS011;51430;52.242;21.118;2022-09-06T16:04:41;2.90;;;0.70;;
33794;SDS011;51430;52.242;21.118;2022-09-06T16:07:09;1.60;;;0.60;;
33794;SDS011;51430;52.242;21.118;2022-09-06T16:09:38;0.50;;;0.40;;
33794;SDS011;51430;52.242;21.118;2022-09-06T16:12:07;2.50;;;0.70;;
33794;SDS011;51430;52.242;21.118;2022-09-06T16:14:36;0.60;;;0.40;;
33794;SDS011;51430;52.242;21.118;2022-09-06T16:17:04;1.00;;;0.60;;
33794;SDS011;51430;52.242;21.118;2022-09-06T16:19:32;4.40;;;1.10;;
33794;SDS011;51430;52.242;21.118;2022-09-06T16:22:01;1.10;;;0.80;;
33794;SDS011;51430;52.242;21.118;2022-09-06T16:24:29;1.40;;;0.60;;
33794;SDS011;51430;52.242;21.118;2022-09-06T16:26:57;1.80;;;0.60;;
33794;SDS011;51430;52.242;21.118;2022-09-06T16:29:25;1.10;;;0.60;;
33794;SDS011;51430;52.242;21.118;2022-09-06T16:31:54;2.40;;;0.40;;
33794;SDS011;51430;52.242;21.118;2022-09-06T16:34:26;5.60;;;0.90;;
33794;SDS011;51430;52.242;21.118;2022-09-06T16:36:55;1.90;;;0.50;;
33794;SDS011;51430;52.242;21.118;2022-09-06T16:39:24;2.80;;;0.60;;
33794;SDS011;51430;52.242;21.118;2022-09-06T16:41:52;1.40;;;0.70;;
33794;SDS011;51430;52.242;21.118;2022-09-06T16:44:21;4.10;;;0.70;;
33794;SDS011;51430;52.242;21.118;2022-09-06T16:46:49;5.20;;;0.80;;